Norton, KS

9:19 AM CST on February 07, 2016 (GMT -0600)
NonFedAWOS | | Change Station
CLOSE
Current Station
Personal Weather Station
Location: Norton, KS
Elevation: 2382 ft
Nearby Weather Stations

Elev 2382 ft 39.85 °N, 99.89 °W | Updated 19 minutes ago

Partly Cloudy
Partly Cloudy
34 °F
Feels Like 25 °F
N
14
Wind Variable Wind from West
Gusts 0.0 mph

Today
High -- | Low -- °F
--% Chance of Precip.
Yesterday
High -- | Low -- °F
Precip. -- in
Pressure 30.23 in
Visibility 10.0 miles
Clouds Mostly Cloudy 8500 ft
Windchill 25 °F
Dew Point 21 °F
Humidity 60%
Rainfall in
Snow Depth Not available.
7:42 AM 6:05 PM
Waning Crescent, 1% visible
METAR KHLC 071453Z AUTO 32005KT 10SM BKN085 02/M04 A3019 RMK AO2 SLP235 T00221044 53021
Pressure 30.23 in
Visibility 10.0 miles
Clouds Mostly Cloudy 8500 ft
Windchill 25 °F
Dew Point 21 °F
Humidity 60%
Rainfall in
Snow Depth Not available.
7:42 AM 6:05 PM
Waning Crescent, 1% visible
METAR KHLC 071453Z AUTO 32005KT 10SM BKN085 02/M04 A3019 RMK AO2 SLP235 T00221044 53021

10-Day Weather Forecast

Almanac

Astronomy

Feb. 07, 2016 Rise Set
Actual Time
Civil Twilight
Nautical Twilight
Astronomical Twilight
Moon
Length of Visible Light
Length of Day
Tomorrow will be .
, % of the Moon is Illuminated

Today's Extremes

State Highs State Lows

Community

WunderPhotos

Upload Photos

1,891,214 photos uploaded!

WunderBlog® & News

Nearby

Air Quality

  Air Quality AQ Index Pollutant
Not available.

Snow Depth

Station Depth Elevation

Earthquake Activity

City Distance Mag. Time & Date
Minimum magnitude displayed is 2.5.

Coastal Water Temperatures

Place Temperature

Stations

Nearby Weather Stations

Station Location Temp. Windchill Dew Point Humidity Wind Precip. Elev Updated Type
                   

Watches & Warnings

There are currently no watches in effect.